sensor_id;sensor_type;location;lat;lon;timestamp;temperature;humidity
13409;DHT22;6775;49.574;11.170;2022-07-25T00:00:11;19.50;99.90
13409;DHT22;6775;49.574;11.170;2022-07-25T00:02:41;19.50;99.90
13409;DHT22;6775;49.574;11.170;2022-07-25T00:05:10;19.40;99.90
13409;DHT22;6775;49.574;11.170;2022-07-25T00:07:38;19.40;99.90
13409;DHT22;6775;49.574;11.170;2022-07-25T00:10:07;19.30;99.90
13409;DHT22;6775;49.574;11.170;2022-07-25T00:12:36;19.30;99.90
13409;DHT22;6775;49.574;11.170;2022-07-25T00:15:06;19.30;99.90
13409;DHT22;6775;49.574;11.170;2022-07-25T00:17:34;19.30;99.90
13409;DHT22;6775;49.574;11.170;2022-07-25T00:20:04;19.30;99.90
13409;DHT22;6775;49.574;11.170;2022-07-25T00:22:32;19.20;99.90
13409;DHT22;6775;49.574;11.170;2022-07-25T00:25:00;19.30;99.90
13409;DHT22;6775;49.574;11.170;2022-07-25T00:27:28;19.30;99.90
13409;DHT22;6775;49.574;11.170;2022-07-25T00:29:56;19.20;99.90
13409;DHT22;6775;49.574;11.170;2022-07-25T00:32:25;19.20;99.90
13409;DHT22;6775;49.574;11.170;2022-07-25T00:34:53;19.20;99.90
13409;DHT22;6775;49.574;11.170;2022-07-25T00:37:21;19.10;99.90
13409;DHT22;6775;49.574;11.170;2022-07-25T00:39:50;19.10;99.90
13409;DHT22;6775;49.574;11.170;2022-07-25T00:42:19;19.10;99.90
13409;DHT22;6775;49.574;11.170;2022-07-25T00:44:50;19.00;99.90
13409;DHT22;6775;49.574;11.170;2022-07-25T00:47:21;19.00;99.90
13409;DHT22;6775;49.574;11.170;2022-07-25T00:49:59;18.90;99.90
13409;DHT22;6775;49.574;11.170;2022-07-25T00:52:27;18.80;99.90
13409;DHT22;6775;49.574;11.170;2022-07-25T00:54:55;18.80;99.90
13409;DHT22;6775;49.574;11.170;2022-07-25T00:57:23;18.80;99.90
13409;DHT22;6775;49.574;11.170;2022-07-25T00:59:52;18.70;99.90
13409;DHT22;6775;49.574;11.170;2022-07-25T01:02:20;18.70;99.90
13409;DHT22;6775;49.574;11.170;2022-07-25T01:04:49;18.70;99.90
13409;DHT22;6775;49.574;11.170;2022-07-25T01:07:18;18.70;99.90
13409;DHT22;6775;49.574;11.170;2022-07-25T01:09:50;18.70;99.90
13409;DHT22;6775;49.574;11.170;2022-07-25T01:12:19;18.60;99.90
13409;DHT22;6775;49.574;11.170;2022-07-25T01:14:47;18.60;99.90
13409;DHT22;6775;49.574;11.170;2022-07-25T01:17:15;18.60;99.90
13409;DHT22;6775;49.574;11.170;2022-07-25T01:19:43;18.60;99.90
13409;DHT22;6775;49.574;11.170;2022-07-25T01:22:13;18.60;99.90
13409;DHT22;6775;49.574;11.170;2022-07-25T01:24:41;18.50;99.90
13409;DHT22;6775;49.574;11.170;2022-07-25T01:27:09;18.50;99.90
13409;DHT22;6775;49.574;11.170;2022-07-25T01:29:43;18.50;99.90
13409;DHT22;6775;49.574;11.170;2022-07-25T01:32:11;18.40;99.90
13409;DHT22;6775;49.574;11.170;2022-07-25T01:34:39;18.40;99.90
13409;DHT22;6775;49.574;11.170;2022-07-25T01:37:07;18.40;99.90
13409;DHT22;6775;49.574;11.170;2022-07-25T01:39:36;18.40;99.90
13409;DHT22;6775;49.574;11.170;2022-07-25T01:42:05;18.30;99.90
13409;DHT22;6775;49.574;11.170;2022-07-25T01:44:33;18.30;99.90
13409;DHT22;6775;49.574;11.170;2022-07-25T01:47:00;18.30;99.90
13409;DHT22;6775;49.574;11.170;2022-07-25T01:49:29;18.20;99.90
13409;DHT22;6775;49.574;11.170;2022-07-25T01:51:56;18.20;99.90
13409;DHT22;6775;49.574;11.170;2022-07-25T01:54:24;18.20;99.90
13409;DHT22;6775;49.574;11.170;2022-07-25T01:56:54;18.20;99.90
13409;DHT22;6775;49.574;11.170;2022-07-25T01:59:22;18.20;99.90
13409;DHT22;6775;49.574;11.170;2022-07-25T02:01:50;18.10;99.90
13409;DHT22;6775;49.574;11.170;2022-07-25T02:04:18;18.10;99.90
13409;DHT22;6775;49.574;11.170;2022-07-25T02:06:46;18.10;99.90
13409;DHT22;6775;49.574;11.170;2022-07-25T02:09:14;18.20;99.90
13409;DHT22;6775;49.574;11.170;2022-07-25T02:11:43;18.30;99.90
13409;DHT22;6775;49.574;11.170;2022-07-25T02:14:13;18.30;99.90
13409;DHT22;6775;49.574;11.170;2022-07-25T02:16:40;18.30;99.90
13409;DHT22;6775;49.574;11.170;2022-07-25T02:19:08;18.30;99.90
13409;DHT22;6775;49.574;11.170;2022-07-25T02:21:37;18.30;99.90
13409;DHT22;6775;49.574;11.170;2022-07-25T02:24:05;18.30;99.90
13409;DHT22;6775;49.574;11.170;2022-07-25T02:26:34;18.30;99.90
13409;DHT22;6775;49.574;11.170;2022-07-25T02:29:02;18.30;99.90
13409;DHT22;6775;49.574;11.170;2022-07-25T02:31:31;18.30;99.90
13409;DHT22;6775;49.574;11.170;2022-07-25T02:33:59;18.30;99.90
13409;DHT22;6775;49.574;11.170;2022-07-25T02:36:27;18.30;99.90
13409;DHT22;6775;49.574;11.170;2022-07-25T02:38:55;18.30;99.90
13409;DHT22;6775;49.574;11.170;2022-07-25T02:41:23;18.30;99.90
13409;DHT22;6775;49.574;11.170;2022-07-25T02:43:51;18.30;99.90
13409;DHT22;6775;49.574;11.170;2022-07-25T02:46:19;18.30;99.90
13409;DHT22;6775;49.574;11.170;2022-07-25T02:53:01;18.30;99.90
13409;DHT22;6775;49.574;11.170;2022-07-25T02:55:29;18.30;99.90
13409;DHT22;6775;49.574;11.170;2022-07-25T02:57:57;18.30;99.90
13409;DHT22;6775;49.574;11.170;2022-07-25T03:00:25;18.30;99.90
13409;DHT22;6775;49.574;11.170;2022-07-25T03:02:53;18.30;99.90
13409;DHT22;6775;49.574;11.170;2022-07-25T03:05:21;18.30;99.90
13409;DHT22;6775;49.574;11.170;2022-07-25T03:07:49;18.30;99.90
13409;DHT22;6775;49.574;11.170;2022-07-25T03:10:18;18.30;99.90
13409;DHT22;6775;49.574;11.170;2022-07-25T03:12:46;18.30;99.90
13409;DHT22;6775;49.574;11.170;2022-07-25T03:15:14;18.30;99.90
13409;DHT22;6775;49.574;11.170;2022-07-25T03:17:42;18.30;99.90
13409;DHT22;6775;49.574;11.170;2022-07-25T03:20:10;18.20;99.90
13409;DHT22;6775;49.574;11.170;2022-07-25T03:22:38;18.20;99.90
13409;DHT22;6775;49.574;11.170;2022-07-25T03:25:07;18.10;99.90
13409;DHT22;6775;49.574;11.170;2022-07-25T03:27:48;18.10;99.90
13409;DHT22;6775;49.574;11.170;2022-07-25T03:30:16;18.00;99.90
13409;DHT22;6775;49.574;11.170;2022-07-25T03:32:44;17.90;99.90
13409;DHT22;6775;49.574;11.170;2022-07-25T03:35:12;17.80;99.90
13409;DHT22;6775;49.574;11.170;2022-07-25T03:37:41;17.80;99.90
13409;DHT22;6775;49.574;11.170;2022-07-25T03:40:09;17.80;99.90
13409;DHT22;6775;49.574;11.170;2022-07-25T03:42:37;17.80;99.90
13409;DHT22;6775;49.574;11.170;2022-07-25T03:45:08;17.90;99.90
13409;DHT22;6775;49.574;11.170;2022-07-25T03:47:36;17.90;99.90
13409;DHT22;6775;49.574;11.170;2022-07-25T03:50:04;17.90;99.90
13409;DHT22;6775;49.574;11.170;2022-07-25T03:52:32;17.90;99.90
13409;DHT22;6775;49.574;11.170;2022-07-25T03:55:00;17.90;99.90
13409;DHT22;6775;49.574;11.170;2022-07-25T03:57:28;17.90;99.90
13409;DHT22;6775;49.574;11.170;2022-07-25T03:59:56;18.00;99.90
13409;DHT22;6775;49.574;11.170;2022-07-25T04:02:25;17.90;99.90
13409;DHT22;6775;49.574;11.170;2022-07-25T04:04:53;17.90;99.90
13409;DHT22;6775;49.574;11.170;2022-07-25T04:07:21;17.90;99.90
13409;DHT22;6775;49.574;11.170;2022-07-25T04:09:49;17.90;99.90
13409;DHT22;6775;49.574;11.170;2022-07-25T04:12:16;18.00;99.90
13409;DHT22;6775;49.574;11.170;2022-07-25T04:14:44;18.00;99.90
13409;DHT22;6775;49.574;11.170;2022-07-25T04:17:12;18.10;99.90
13409;DHT22;6775;49.574;11.170;2022-07-25T04:19:42;18.10;99.90
13409;DHT22;6775;49.574;11.170;2022-07-25T04:22:10;18.10;99.90
13409;DHT22;6775;49.574;11.170;2022-07-25T04:24:38;18.10;99.90
13409;DHT22;6775;49.574;11.170;2022-07-25T04:27:06;18.10;99.90
13409;DHT22;6775;49.574;11.170;2022-07-25T04:29:34;18.20;99.90
13409;DHT22;6775;49.574;11.170;2022-07-25T04:32:02;18.20;99.90
13409;DHT22;6775;49.574;11.170;2022-07-25T04:34:30;18.30;99.90
13409;DHT22;6775;49.574;11.170;2022-07-25T04:36:59;18.30;99.90
13409;DHT22;6775;49.574;11.170;2022-07-25T04:39:27;18.40;99.90
13409;DHT22;6775;49.574;11.170;2022-07-25T04:41:55;18.40;99.90
13409;DHT22;6775;49.574;11.170;2022-07-25T04:44:23;18.40;99.90
13409;DHT22;6775;49.574;11.170;2022-07-25T04:46:51;18.50;99.90
13409;DHT22;6775;49.574;11.170;2022-07-25T04:49:20;18.50;99.90
13409;DHT22;6775;49.574;11.170;2022-07-25T04:51:47;18.60;99.90
13409;DHT22;6775;49.574;11.170;2022-07-25T04:54:17;18.60;99.90
13409;DHT22;6775;49.574;11.170;2022-07-25T04:56:44;18.70;99.90
13409;DHT22;6775;49.574;11.170;2022-07-25T04:59:13;18.70;99.90
13409;DHT22;6775;49.574;11.170;2022-07-25T05:01:41;18.80;99.90
13409;DHT22;6775;49.574;11.170;2022-07-25T05:04:09;18.90;99.90
13409;DHT22;6775;49.574;11.170;2022-07-25T05:06:37;18.90;99.90
13409;DHT22;6775;49.574;11.170;2022-07-25T05:09:05;19.00;99.90
13409;DHT22;6775;49.574;11.170;2022-07-25T05:11:34;19.10;99.90
13409;DHT22;6775;49.574;11.170;2022-07-25T05:14:02;19.20;99.90
13409;DHT22;6775;49.574;11.170;2022-07-25T05:16:30;19.30;99.90
13409;DHT22;6775;49.574;11.170;2022-07-25T05:18:58;19.40;99.90
13409;DHT22;6775;49.574;11.170;2022-07-25T05:21:26;19.50;99.90
13409;DHT22;6775;49.574;11.170;2022-07-25T05:23:54;19.60;99.90
13409;DHT22;6775;49.574;11.170;2022-07-25T05:26:22;19.70;99.90
13409;DHT22;6775;49.574;11.170;2022-07-25T05:28:51;19.80;99.90
13409;DHT22;6775;49.574;11.170;2022-07-25T05:31:19;20.00;99.90
13409;DHT22;6775;49.574;11.170;2022-07-25T05:33:47;20.10;99.90
13409;DHT22;6775;49.574;11.170;2022-07-25T05:36:15;20.20;99.90
13409;DHT22;6775;49.574;11.170;2022-07-25T05:38:43;20.40;99.90
13409;DHT22;6775;49.574;11.170;2022-07-25T05:41:11;20.50;99.90
13409;DHT22;6775;49.574;11.170;2022-07-25T05:43:39;20.60;99.90
13409;DHT22;6775;49.574;11.170;2022-07-25T05:46:13;20.70;99.90
13409;DHT22;6775;49.574;11.170;2022-07-25T05:48:41;20.80;99.90
13409;DHT22;6775;49.574;11.170;2022-07-25T05:51:09;20.90;99.90
13409;DHT22;6775;49.574;11.170;2022-07-25T05:53:38;21.10;99.90
13409;DHT22;6775;49.574;11.170;2022-07-25T05:56:06;21.20;99.90
13409;DHT22;6775;49.574;11.170;2022-07-25T05:58:34;21.30;99.90
13409;DHT22;6775;49.574;11.170;2022-07-25T06:01:06;21.50;99.90
13409;DHT22;6775;49.574;11.170;2022-07-25T06:03:35;21.70;99.90
13409;DHT22;6775;49.574;11.170;2022-07-25T06:06:04;21.80;99.90
13409;DHT22;6775;49.574;11.170;2022-07-25T06:08:34;22.00;99.90
13409;DHT22;6775;49.574;11.170;2022-07-25T06:11:03;22.20;99.90
13409;DHT22;6775;49.574;11.170;2022-07-25T06:13:34;22.40;99.90
13409;DHT22;6775;49.574;11.170;2022-07-25T06:16:02;22.50;99.90
13409;DHT22;6775;49.574;11.170;2022-07-25T06:18:30;22.70;99.90
13409;DHT22;6775;49.574;11.170;2022-07-25T06:20:59;22.90;99.90
13409;DHT22;6775;49.574;11.170;2022-07-25T06:23:27;23.00;99.90
13409;DHT22;6775;49.574;11.170;2022-07-25T06:25:57;23.10;99.90
13409;DHT22;6775;49.574;11.170;2022-07-25T06:28:25;23.20;99.90
13409;DHT22;6775;49.574;11.170;2022-07-25T06:30:53;23.50;99.90
13409;DHT22;6775;49.574;11.170;2022-07-25T06:33:21;23.70;99.90
13409;DHT22;6775;49.574;11.170;2022-07-25T06:35:49;23.80;99.90
13409;DHT22;6775;49.574;11.170;2022-07-25T06:38:18;24.00;99.90
13409;DHT22;6775;49.574;11.170;2022-07-25T06:40:46;24.10;99.90
13409;DHT22;6775;49.574;11.170;2022-07-25T06:43:14;24.20;99.90
13409;DHT22;6775;49.574;11.170;2022-07-25T06:45:42;24.40;99.90
13409;DHT22;6775;49.574;11.170;2022-07-25T06:48:13;24.50;99.90
13409;DHT22;6775;49.574;11.170;2022-07-25T06:50:41;24.70;99.90
13409;DHT22;6775;49.574;11.170;2022-07-25T06:53:08;24.70;99.90
13409;DHT22;6775;49.574;11.170;2022-07-25T06:55:38;24.90;99.90
13409;DHT22;6775;49.574;11.170;2022-07-25T06:58:05;25.00;99.90
13409;DHT22;6775;49.574;11.170;2022-07-25T07:00:33;25.10;99.90
13409;DHT22;6775;49.574;11.170;2022-07-25T07:03:02;25.20;99.90
13409;DHT22;6775;49.574;11.170;2022-07-25T07:05:31;25.30;99.90
13409;DHT22;6775;49.574;11.170;2022-07-25T07:08:00;25.40;99.90
13409;DHT22;6775;49.574;11.170;2022-07-25T07:10:29;25.50;99.90
13409;DHT22;6775;49.574;11.170;2022-07-25T07:13:04;25.60;99.90
13409;DHT22;6775;49.574;11.170;2022-07-25T07:15:34;25.80;99.00
13409;DHT22;6775;49.574;11.170;2022-07-25T07:18:04;25.80;98.60
13409;DHT22;6775;49.574;11.170;2022-07-25T07:20:32;25.90;98.40
13409;DHT22;6775;49.574;11.170;2022-07-25T07:23:00;26.00;97.70
13409;DHT22;6775;49.574;11.170;2022-07-25T07:25:28;26.10;98.00
13409;DHT22;6775;49.574;11.170;2022-07-25T07:27:56;26.20;97.90
13409;DHT22;6775;49.574;11.170;2022-07-25T07:30:26;26.40;96.70
13409;DHT22;6775;49.574;11.170;2022-07-25T07:33:13;26.50;96.10
13409;DHT22;6775;49.574;11.170;2022-07-25T07:35:43;26.60;96.30
13409;DHT22;6775;49.574;11.170;2022-07-25T07:38:11;26.80;95.70
13409;DHT22;6775;49.574;11.170;2022-07-25T07:40:39;26.90;95.20
13409;DHT22;6775;49.574;11.170;2022-07-25T07:43:07;27.00;94.80
13409;DHT22;6775;49.574;11.170;2022-07-25T07:45:36;27.10;94.80
13409;DHT22;6775;49.574;11.170;2022-07-25T07:48:05;27.20;93.50
13409;DHT22;6775;49.574;11.170;2022-07-25T07:50:34;27.30;92.90
13409;DHT22;6775;49.574;11.170;2022-07-25T07:53:02;27.40;92.50
13409;DHT22;6775;49.574;11.170;2022-07-25T07:55:30;27.50;92.10
13409;DHT22;6775;49.574;11.170;2022-07-25T07:58:10;27.70;91.70
13409;DHT22;6775;49.574;11.170;2022-07-25T08:00:40;27.80;91.10
13409;DHT22;6775;49.574;11.170;2022-07-25T08:03:08;27.90;90.60
13409;DHT22;6775;49.574;11.170;2022-07-25T08:05:39;28.00;90.30
13409;DHT22;6775;49.574;11.170;2022-07-25T08:08:08;28.10;89.70
13409;DHT22;6775;49.574;11.170;2022-07-25T08:10:38;28.20;89.60
13409;DHT22;6775;49.574;11.170;2022-07-25T08:13:11;28.30;88.90
13409;DHT22;6775;49.574;11.170;2022-07-25T08:15:43;28.40;88.60
13409;DHT22;6775;49.574;11.170;2022-07-25T08:18:11;28.50;88.50
13409;DHT22;6775;49.574;11.170;2022-07-25T08:20:44;28.60;85.30
13409;DHT22;6775;49.574;11.170;2022-07-25T08:23:11;28.70;85.00
13409;DHT22;6775;49.574;11.170;2022-07-25T08:25:40;28.90;84.20
13409;DHT22;6775;49.574;11.170;2022-07-25T08:28:09;29.00;84.40
13409;DHT22;6775;49.574;11.170;2022-07-25T08:30:37;29.00;81.80
13409;DHT22;6775;49.574;11.170;2022-07-25T08:33:09;29.00;80.50
13409;DHT22;6775;49.574;11.170;2022-07-25T08:35:38;29.10;78.90
13409;DHT22;6775;49.574;11.170;2022-07-25T08:38:07;29.20;79.70
13409;DHT22;6775;49.574;11.170;2022-07-25T08:40:37;29.30;79.40
13409;DHT22;6775;49.574;11.170;2022-07-25T08:43:05;29.40;78.00
13409;DHT22;6775;49.574;11.170;2022-07-25T08:45:36;29.50;78.00
13409;DHT22;6775;49.574;11.170;2022-07-25T08:48:07;29.60;78.40
13409;DHT22;6775;49.574;11.170;2022-07-25T08:50:35;29.80;78.00
13409;DHT22;6775;49.574;11.170;2022-07-25T08:53:04;29.90;77.20
13409;DHT22;6775;49.574;11.170;2022-07-25T08:55:52;30.00;78.60
13409;DHT22;6775;49.574;11.170;2022-07-25T08:58:20;30.10;76.40
13409;DHT22;6775;49.574;11.170;2022-07-25T09:00:48;30.10;75.80
13409;DHT22;6775;49.574;11.170;2022-07-25T09:03:17;30.00;75.40
13409;DHT22;6775;49.574;11.170;2022-07-25T09:05:45;30.10;74.60
13409;DHT22;6775;49.574;11.170;2022-07-25T09:08:14;30.10;75.10
13409;DHT22;6775;49.574;11.170;2022-07-25T09:10:45;30.20;74.30
13409;DHT22;6775;49.574;11.170;2022-07-25T09:13:14;30.20;74.70
13409;DHT22;6775;49.574;11.170;2022-07-25T09:15:45;30.40;73.80
13409;DHT22;6775;49.574;11.170;2022-07-25T09:18:18;30.50;72.60
13409;DHT22;6775;49.574;11.170;2022-07-25T09:20:50;30.60;73.20
13409;DHT22;6775;49.574;11.170;2022-07-25T09:23:27;30.70;72.60
13409;DHT22;6775;49.574;11.170;2022-07-25T09:26:01;30.70;71.20
13409;DHT22;6775;49.574;11.170;2022-07-25T09:28:29;30.90;72.10
13409;DHT22;6775;49.574;11.170;2022-07-25T09:30:58;30.90;70.80
13409;DHT22;6775;49.574;11.170;2022-07-25T09:33:28;31.00;71.00
13409;DHT22;6775;49.574;11.170;2022-07-25T09:35:56;31.10;70.20
13409;DHT22;6775;49.574;11.170;2022-07-25T09:38:25;31.20;69.40
13409;DHT22;6775;49.574;11.170;2022-07-25T09:40:54;31.20;69.30
13409;DHT22;6775;49.574;11.170;2022-07-25T09:43:22;31.20;69.80
13409;DHT22;6775;49.574;11.170;2022-07-25T09:45:51;31.20;68.40
13409;DHT22;6775;49.574;11.170;2022-07-25T09:48:19;31.30;69.00
13409;DHT22;6775;49.574;11.170;2022-07-25T09:50:49;31.30;68.00
13409;DHT22;6775;49.574;11.170;2022-07-25T09:53:18;31.30;67.70
13409;DHT22;6775;49.574;11.170;2022-07-25T09:55:46;31.30;68.70
13409;DHT22;6775;49.574;11.170;2022-07-25T09:58:14;31.40;67.30
13409;DHT22;6775;49.574;11.170;2022-07-25T10:00:42;31.50;66.90
13409;DHT22;6775;49.574;11.170;2022-07-25T10:03:17;31.60;67.30
13409;DHT22;6775;49.574;11.170;2022-07-25T10:06:09;31.80;67.50
13409;DHT22;6775;49.574;11.170;2022-07-25T10:08:39;31.80;66.60
13409;DHT22;6775;49.574;11.170;2022-07-25T10:11:17;31.90;65.90
13409;DHT22;6775;49.574;11.170;2022-07-25T10:13:46;32.10;65.00
13409;DHT22;6775;49.574;11.170;2022-07-25T10:16:15;32.00;64.80
13409;DHT22;6775;49.574;11.170;2022-07-25T10:18:48;32.00;64.70
13409;DHT22;6775;49.574;11.170;2022-07-25T10:21:19;32.00;64.30
13409;DHT22;6775;49.574;11.170;2022-07-25T10:23:59;32.00;62.20
13409;DHT22;6775;49.574;11.170;2022-07-25T10:26:28;32.00;63.40
13409;DHT22;6775;49.574;11.170;2022-07-25T10:28:57;32.10;64.10
13409;DHT22;6775;49.574;11.170;2022-07-25T10:31:33;32.20;63.00
13409;DHT22;6775;49.574;11.170;2022-07-25T10:34:04;32.30;64.20
13409;DHT22;6775;49.574;11.170;2022-07-25T10:36:42;32.40;63.60
13409;DHT22;6775;49.574;11.170;2022-07-25T10:39:13;32.50;63.20
13409;DHT22;6775;49.574;11.170;2022-07-25T10:41:42;32.60;63.90
13409;DHT22;6775;49.574;11.170;2022-07-25T10:44:12;32.70;60.60
13409;DHT22;6775;49.574;11.170;2022-07-25T10:46:40;32.80;59.70
13409;DHT22;6775;49.574;11.170;2022-07-25T10:49:17;32.70;60.00
13409;DHT22;6775;49.574;11.170;2022-07-25T10:51:58;32.80;60.10
13409;DHT22;6775;49.574;11.170;2022-07-25T10:54:32;32.80;59.70
13409;DHT22;6775;49.574;11.170;2022-07-25T10:57:01;32.90;60.50
13409;DHT22;6775;49.574;11.170;2022-07-25T10:59:32;32.90;60.10
13409;DHT22;6775;49.574;11.170;2022-07-25T11:02:01;33.10;60.50
13409;DHT22;6775;49.574;11.170;2022-07-25T11:04:29;33.10;59.60
13409;DHT22;6775;49.574;11.170;2022-07-25T11:07:06;33.20;60.10
13409;DHT22;6775;49.574;11.170;2022-07-25T11:09:35;33.30;59.60
13409;DHT22;6775;49.574;11.170;2022-07-25T11:12:04;33.40;60.20
13409;DHT22;6775;49.574;11.170;2022-07-25T11:14:34;33.40;59.90
13409;DHT22;6775;49.574;11.170;2022-07-25T11:17:11;33.30;60.20
13409;DHT22;6775;49.574;11.170;2022-07-25T11:19:41;33.30;60.20
13409;DHT22;6775;49.574;11.170;2022-07-25T11:22:10;33.40;60.20
13409;DHT22;6775;49.574;11.170;2022-07-25T11:24:40;33.50;59.30
13409;DHT22;6775;49.574;11.170;2022-07-25T11:27:09;33.50;59.60
13409;DHT22;6775;49.574;11.170;2022-07-25T11:29:39;33.50;59.80
13409;DHT22;6775;49.574;11.170;2022-07-25T11:32:09;33.60;60.20
13409;DHT22;6775;49.574;11.170;2022-07-25T11:34:39;33.70;60.20
13409;DHT22;6775;49.574;11.170;2022-07-25T11:37:11;33.70;58.80
13409;DHT22;6775;49.574;11.170;2022-07-25T11:39:43;33.70;58.90
13409;DHT22;6775;49.574;11.170;2022-07-25T11:42:13;33.80;59.00
13409;DHT22;6775;49.574;11.170;2022-07-25T11:44:44;33.80;59.10
13409;DHT22;6775;49.574;11.170;2022-07-25T11:47:25;33.80;59.20
13409;DHT22;6775;49.574;11.170;2022-07-25T11:49:54;33.90;59.60
13409;DHT22;6775;49.574;11.170;2022-07-25T11:52:28;34.00;57.70
13409;DHT22;6775;49.574;11.170;2022-07-25T11:54:58;34.00;57.60
13409;DHT22;6775;49.574;11.170;2022-07-25T11:57:28;33.90;57.50
13409;DHT22;6775;49.574;11.170;2022-07-25T11:59:57;33.90;57.70
13409;DHT22;6775;49.574;11.170;2022-07-25T12:02:27;34.00;57.30
13409;DHT22;6775;49.574;11.170;2022-07-25T12:04:59;34.00;57.30
13409;DHT22;6775;49.574;11.170;2022-07-25T12:07:37;34.00;57.30
13409;DHT22;6775;49.574;11.170;2022-07-25T12:10:06;34.10;57.90
13409;DHT22;6775;49.574;11.170;2022-07-25T12:12:42;34.20;57.00
13409;DHT22;6775;49.574;11.170;2022-07-25T12:15:11;34.30;57.60
13409;DHT22;6775;49.574;11.170;2022-07-25T12:17:40;34.40;58.00
13409;DHT22;6775;49.574;11.170;2022-07-25T12:20:13;34.50;57.90
13409;DHT22;6775;49.574;11.170;2022-07-25T12:22:43;34.50;56.00
13409;DHT22;6775;49.574;11.170;2022-07-25T12:25:11;34.50;55.40
13409;DHT22;6775;49.574;11.170;2022-07-25T12:27:39;34.50;55.90
13409;DHT22;6775;49.574;11.170;2022-07-25T12:30:08;34.60;56.20
13409;DHT22;6775;49.574;11.170;2022-07-25T12:32:37;34.60;55.60
13409;DHT22;6775;49.574;11.170;2022-07-25T12:35:06;34.70;53.40
13409;DHT22;6775;49.574;11.170;2022-07-25T12:37:35;34.70;53.50
13409;DHT22;6775;49.574;11.170;2022-07-25T12:40:05;34.70;54.10
13409;DHT22;6775;49.574;11.170;2022-07-25T12:42:33;34.70;54.50
13409;DHT22;6775;49.574;11.170;2022-07-25T12:45:02;34.80;55.00
13409;DHT22;6775;49.574;11.170;2022-07-25T12:47:30;34.90;54.50
13409;DHT22;6775;49.574;11.170;2022-07-25T12:49:58;34.80;53.60
13409;DHT22;6775;49.574;11.170;2022-07-25T12:52:26;34.80;54.70
13409;DHT22;6775;49.574;11.170;2022-07-25T12:54:54;34.90;54.60
13409;DHT22;6775;49.574;11.170;2022-07-25T12:57:23;34.90;54.10
13409;DHT22;6775;49.574;11.170;2022-07-25T12:59:51;34.90;53.90
13409;DHT22;6775;49.574;11.170;2022-07-25T13:02:19;34.90;53.10
13409;DHT22;6775;49.574;11.170;2022-07-25T13:04:47;34.80;54.00
13409;DHT22;6775;49.574;11.170;2022-07-25T13:07:15;34.70;53.70
13409;DHT22;6775;49.574;11.170;2022-07-25T13:09:43;34.50;53.90
13409;DHT22;6775;49.574;11.170;2022-07-25T13:12:11;34.30;54.40
13409;DHT22;6775;49.574;11.170;2022-07-25T13:14:43;34.10;55.00
13409;DHT22;6775;49.574;11.170;2022-07-25T13:17:11;34.10;55.60
13409;DHT22;6775;49.574;11.170;2022-07-25T13:19:39;34.10;55.10
13409;DHT22;6775;49.574;11.170;2022-07-25T13:22:07;34.00;55.00
13409;DHT22;6775;49.574;11.170;2022-07-25T13:24:35;33.90;55.60
13409;DHT22;6775;49.574;11.170;2022-07-25T13:27:05;34.00;57.30
13409;DHT22;6775;49.574;11.170;2022-07-25T13:29:33;34.10;55.90
13409;DHT22;6775;49.574;11.170;2022-07-25T13:32:03;34.10;54.10
13409;DHT22;6775;49.574;11.170;2022-07-25T13:34:31;34.00;54.10
13409;DHT22;6775;49.574;11.170;2022-07-25T13:36:59;33.90;53.70
13409;DHT22;6775;49.574;11.170;2022-07-25T13:39:27;33.90;54.40
13409;DHT22;6775;49.574;11.170;2022-07-25T13:41:55;33.90;54.80
13409;DHT22;6775;49.574;11.170;2022-07-25T13:44:23;34.00;52.90
13409;DHT22;6775;49.574;11.170;2022-07-25T13:46:51;34.10;51.90
13409;DHT22;6775;49.574;11.170;2022-07-25T13:49:20;34.30;50.50
13409;DHT22;6775;49.574;11.170;2022-07-25T13:51:48;34.40;50.70
13409;DHT22;6775;49.574;11.170;2022-07-25T13:54:15;34.50;49.10
13409;DHT22;6775;49.574;11.170;2022-07-25T13:56:43;34.60;49.80
13409;DHT22;6775;49.574;11.170;2022-07-25T13:59:11;34.70;49.60
13409;DHT22;6775;49.574;11.170;2022-07-25T14:01:46;34.70;49.10
13409;DHT22;6775;49.574;11.170;2022-07-25T14:04:14;34.70;49.60
13409;DHT22;6775;49.574;11.170;2022-07-25T14:06:44;34.70;50.30
13409;DHT22;6775;49.574;11.170;2022-07-25T14:09:18;34.70;50.50
13409;DHT22;6775;49.574;11.170;2022-07-25T14:11:46;34.80;49.80
13409;DHT22;6775;49.574;11.170;2022-07-25T14:14:14;34.90;49.70
13409;DHT22;6775;49.574;11.170;2022-07-25T14:16:42;35.00;48.90
13409;DHT22;6775;49.574;11.170;2022-07-25T14:19:10;35.00;47.60
13409;DHT22;6775;49.574;11.170;2022-07-25T14:21:38;35.00;48.30
13409;DHT22;6775;49.574;11.170;2022-07-25T14:24:08;35.00;48.70
13409;DHT22;6775;49.574;11.170;2022-07-25T14:26:36;35.10;48.90
13409;DHT22;6775;49.574;11.170;2022-07-25T14:29:04;35.00;48.30
13409;DHT22;6775;49.574;11.170;2022-07-25T14:31:38;35.00;48.40
13409;DHT22;6775;49.574;11.170;2022-07-25T14:34:06;34.90;48.30
13409;DHT22;6775;49.574;11.170;2022-07-25T14:36:34;34.90;48.20
13409;DHT22;6775;49.574;11.170;2022-07-25T14:39:02;34.90;48.40
13409;DHT22;6775;49.574;11.170;2022-07-25T14:41:32;34.90;48.40
13409;DHT22;6775;49.574;11.170;2022-07-25T14:44:00;34.90;48.50
13409;DHT22;6775;49.574;11.170;2022-07-25T14:46:28;35.00;48.50
13409;DHT22;6775;49.574;11.170;2022-07-25T14:48:56;35.00;48.30
13409;DHT22;6775;49.574;11.170;2022-07-25T14:51:25;35.00;48.20
13409;DHT22;6775;49.574;11.170;2022-07-25T14:53:54;35.00;48.50
13409;DHT22;6775;49.574;11.170;2022-07-25T14:56:21;35.00;48.60
13409;DHT22;6775;49.574;11.170;2022-07-25T14:58:51;34.80;48.50
13409;DHT22;6775;49.574;11.170;2022-07-25T15:01:19;34.70;48.80
13409;DHT22;6775;49.574;11.170;2022-07-25T15:03:49;34.50;49.10
13409;DHT22;6775;49.574;11.170;2022-07-25T15:06:17;34.30;49.50
13409;DHT22;6775;49.574;11.170;2022-07-25T15:08:45;34.20;50.10
13409;DHT22;6775;49.574;11.170;2022-07-25T15:11:13;34.00;50.50
13409;DHT22;6775;49.574;11.170;2022-07-25T15:13:42;33.90;51.00
13409;DHT22;6775;49.574;11.170;2022-07-25T15:16:11;33.80;51.50
13409;DHT22;6775;49.574;11.170;2022-07-25T15:18:40;33.70;52.10
13409;DHT22;6775;49.574;11.170;2022-07-25T15:21:29;33.60;52.60
13409;DHT22;6775;49.574;11.170;2022-07-25T15:23:57;33.50;52.90
13409;DHT22;6775;49.574;11.170;2022-07-25T15:26:25;33.40;53.00
13409;DHT22;6775;49.574;11.170;2022-07-25T15:28:53;33.30;53.30
13409;DHT22;6775;49.574;11.170;2022-07-25T15:31:22;33.20;53.50
13409;DHT22;6775;49.574;11.170;2022-07-25T15:33:52;33.00;54.00
13409;DHT22;6775;49.574;11.170;2022-07-25T15:36:20;32.90;54.00
13409;DHT22;6775;49.574;11.170;2022-07-25T15:38:55;32.90;54.50
13409;DHT22;6775;49.574;11.170;2022-07-25T15:41:23;32.70;54.90
13409;DHT22;6775;49.574;11.170;2022-07-25T15:43:52;32.70;55.10
13409;DHT22;6775;49.574;11.170;2022-07-25T15:46:20;32.70;55.50